Time;durP1;ratioP1;P1;durP2;ratioP2;P2;SDS_P1;SDS_P2;PMS_P1;PMS_P2;Temp;Humidity;BMP_temperature;BMP_pressure;BME280_temperature;BME280_humidity;BME280_pressure;Samples;Min_cycle;Max_cycle;Signal;HPM_P1;HPM_P2
2022/05/14 00:01:42;;;;;;;8.85;5.07;;;18.00;66.70;;;14.30;81.49;95961.09;5031731;28;20033;-59
2022/05/14 00:04:09;;;;;;;10.30;5.50;;;17.90;66.30;;;14.29;81.25;95965.66;5033299;28;20365;-59
2022/05/14 00:06:35;;;;;;;8.93;4.80;;;17.90;66.30;;;14.24;81.18;95963.00;5031874;28;20026;-59
2022/05/14 00:09:06;;;;;;;8.85;5.55;;;17.90;66.30;;;14.20;81.50;95959.28;5032026;28;20029;-59
2022/05/14 00:14:28;;;;;;;9.07;5.78;;;17.90;66.50;;;14.12;82.04;95965.22;5031928;28;20143;-59
2022/05/14 00:16:54;;;;;;;9.05;5.75;;;17.80;66.20;;;14.04;82.27;95965.81;5032742;28;20033;-58
2022/05/14 00:19:20;;;;;;;8.75;5.10;;;17.80;66.40;;;13.91;82.32;95967.22;5032686;28;20029;-59
2022/05/14 00:21:55;;;;;;;6.97;5.10;;;17.70;66.60;;;13.84;82.34;95964.03;5031019;28;20051;-59
2022/05/14 00:24:23;;;;;;;10.05;5.70;;;17.60;66.90;;;13.78;82.68;95955.22;5031398;28;20036;-58
2022/05/14 00:26:49;;;;;;;15.80;7.00;;;17.60;66.80;;;13.76;83.06;95954.72;5032606;28;20030;-57
2022/05/14 00:29:15;;;;;;;11.43;6.53;;;17.50;66.90;;;13.74;83.44;95961.44;5032142;28;20048;-59
2022/05/14 00:31:44;;;;;;;10.15;6.15;;;17.40;67.10;;;13.74;83.51;95958.75;5032446;28;20065;-57
2022/05/14 00:34:10;;;;;;;11.05;6.43;;;17.40;67.30;;;13.73;83.41;95965.19;5032531;28;20519;-58
2022/05/14 00:36:35;;;;;;;10.68;6.50;;;17.40;67.30;;;13.70;83.83;95963.06;5032509;28;20030;-56
2022/05/14 00:39:04;;;;;;;10.85;7.28;;;17.40;67.50;;;13.61;83.84;95960.94;5032883;28;20500;-57
2022/05/14 00:41:30;;;;;;;12.05;7.05;;;17.40;67.60;;;13.63;83.72;95966.00;5031020;28;20045;-58
2022/05/14 00:43:59;;;;;;;10.23;7.03;;;17.30;67.50;;;13.57;83.70;95956.41;5032542;28;20022;-59
2022/05/14 00:47:09;;;;;;;12.10;7.28;;;17.30;67.60;;;13.49;84.43;95952.44;5031159;28;20026;-59
2022/05/14 00:49:35;;;;;;;11.75;7.25;;;17.30;67.80;;;13.42;84.38;95955.41;5032253;28;20117;-55
2022/05/14 00:52:03;;;;;;;11.73;7.70;;;17.10;67.50;;;13.35;84.41;95954.91;5014643;28;20623;-59
2022/05/14 00:54:49;;;;;;;13.52;7.53;;;17.10;67.80;;;13.34;84.03;95949.81;5032220;28;20057;-55
2022/05/14 00:57:21;;;;;;;11.88;7.53;;;17.10;68.10;;;13.25;84.41;95951.44;5031106;28;20108;-54
2022/05/14 00:59:47;;;;;;;12.35;7.97;;;17.00;67.90;;;13.22;83.86;95958.09;5031161;28;20033;-58
2022/05/14 01:02:17;;;;;;;13.00;7.63;;;16.90;67.80;;;13.15;83.66;95958.38;5030714;28;20034;-59
2022/05/14 01:04:45;;;;;;;13.77;7.85;;;16.90;68.00;;;13.09;84.06;95964.00;5032122;28;20033;-58
2022/05/14 01:07:18;;;;;;;11.05;7.95;;;16.80;67.90;;;13.02;84.92;95960.81;5030966;28;20033;-59
2022/05/14 01:09:55;;;;;;;11.43;7.78;;;16.80;68.10;;;12.98;84.79;95952.56;5032028;28;20180;-58
2022/05/14 01:12:23;;;;;;;14.93;7.97;;;16.80;68.10;;;12.94;84.63;95952.28;5036248;28;20044;-56
2022/05/14 01:14:52;;;;;;;11.80;7.72;;;16.70;68.10;;;12.93;84.90;95968.59;5035923;28;20400;-58
2022/05/14 01:17:20;;;;;;;13.25;8.23;;;16.70;68.30;;;12.91;84.69;95960.84;5034885;28;20476;-59
2022/05/14 01:19:46;;;;;;;15.30;8.55;;;16.70;68.40;;;12.87;85.07;95965.13;5051288;28;20045;-57
2022/05/14 01:22:59;;;;;;;11.75;7.75;;;16.70;68.40;;;12.85;85.01;95961.09;5035594;28;20411;-57
2022/05/14 01:28:38;;;;;;;14.27;8.23;;;16.60;68.60;;;12.81;85.65;95963.50;5035981;28;20330;-57
2022/05/14 01:31:05;;;;;;;10.90;8.15;;;16.60;68.40;;;12.82;85.67;95953.66;5034672;28;20099;-59
2022/05/14 01:33:38;;;;;;;14.70;8.93;;;16.60;68.70;;;12.80;86.13;95958.47;5034562;28;20177;-55
2022/05/14 01:36:08;;;;;;;;;;;16.50;69.00;;;12.82;85.97;95959.78;5035026;28;20495;-59
2022/05/14 01:38:36;;;;;;;15.50;8.85;;;16.50;68.40;;;12.77;86.22;95957.13;5035542;28;19913;-58
2022/05/14 01:41:09;;;;;;;13.20;8.93;;;16.50;68.50;;;12.75;86.28;95959.25;5035528;28;20503;-58
2022/05/14 01:43:35;;;;;;;16.95;9.15;;;16.50;68.90;;;12.72;86.65;95960.59;5034211;28;20026;-58
2022/05/14 01:46:06;;;;;;;19.38;9.85;;;16.50;68.90;;;12.74;86.76;95963.00;5035951;28;20041;-58
2022/05/14 01:48:35;;;;;;;13.30;9.70;;;16.50;69.20;;;12.70;86.51;95954.72;5034344;28;20416;-59
2022/05/14 01:51:01;;;;;;;14.50;10.18;;;16.40;69.20;;;12.66;87.28;95960.84;5035344;28;20034;-58
2022/05/14 01:53:33;;;;;;;16.70;10.73;;;16.40;69.40;;;12.65;87.33;95960.06;5034188;28;20029;-54
2022/05/14 01:56:02;;;;;;;17.13;10.80;;;16.40;69.80;;;12.68;86.92;95958.72;5017709;28;20037;-58
2022/05/14 01:58:40;;;;;;;15.63;9.95;;;16.40;69.50;;;12.66;86.99;95950.16;5035205;28;20045;-58
2022/05/14 02:01:17;;;;;;;12.82;9.52;;;16.40;69.80;;;12.66;87.13;95944.81;5033796;28;20087;-59
2022/05/14 02:03:47;;;;;;;14.23;10.63;;;16.30;69.80;;;12.59;87.25;95945.09;5050484;28;20084;-57
2022/05/14 02:06:17;;;;;;;19.65;10.93;;;16.30;69.70;;;12.59;86.94;95955.78;5034233;28;20021;-59
2022/05/14 02:08:43;;;;;;;22.13;11.63;;;16.30;69.80;;;12.55;86.95;95944.03;5035012;28;20029;-58
2022/05/14 02:11:09;;;;;;;17.38;10.80;;;16.30;69.80;;;12.53;87.05;95946.16;5033761;28;20636;-57
2022/05/14 02:13:38;;;;;;;18.05;10.90;;;16.30;70.70;;;12.52;86.95;95949.91;5035055;28;20185;-56
2022/05/14 02:16:10;;;;;;;19.90;11.77;;;16.20;70.00;;;12.48;87.03;95940.84;5034958;28;20053;-59
2022/05/14 02:18:45;;;;;;;22.98;12.27;;;16.30;70.30;;;12.49;88.03;95940.56;5034022;28;20057;-57
2022/05/14 02:21:12;;;;;;;23.00;12.45;;;16.20;70.30;;;12.49;87.80;95932.53;5065661;22;20696;-52
2022/05/14 02:23:44;;;;;;;18.17;11.90;;;16.20;70.20;;;12.49;87.77;95939.75;5053600;28;20037;-51
2022/05/14 02:26:12;;;;;;;19.13;11.95;;;16.20;70.40;;;12.45;87.59;95931.47;5049468;28;20080;-49
2022/05/14 02:28:41;;;;;;;19.45;11.55;;;16.20;70.40;;;12.45;88.24;95928.00;5050166;28;20504;-49
2022/05/14 02:31:08;;;;;;;20.30;11.80;;;16.20;70.40;;;12.49;88.03;95932.53;5044840;28;20034;-47
2022/05/14 02:33:37;;;;;;;21.17;11.80;;;16.20;70.40;;;12.46;87.48;95934.94;5015024;28;20025;-49
2022/05/14 02:36:07;;;;;;;17.92;11.68;;;16.20;70.50;;;12.40;87.51;95930.66;5013460;28;20534;-52
2022/05/14 02:38:36;;;;;;;21.60;13.15;;;16.20;70.50;;;12.35;88.21;95920.81;5013622;28;20076;-54
2022/05/14 02:41:04;;;;;;;18.88;11.55;;;16.10;70.80;;;12.33;88.11;95924.81;4997058;28;20034;-52
2022/05/14 02:43:32;;;;;;;18.73;12.18;;;16.10;70.50;;;12.28;87.69;95922.91;5014680;28;20033;-50
2022/05/14 02:46:04;;;;;;;20.13;12.73;;;16.00;70.50;;;12.20;88.10;95923.47;5014501;28;20029;-52
2022/05/14 02:48:31;;;;;;;23.08;12.18;;;16.00;70.60;;;12.15;88.44;95915.44;5014475;28;20052;-51
2022/05/14 02:50:57;;;;;;;18.05;10.75;;;16.00;70.70;;;12.10;88.36;95913.56;5013263;28;20026;-52
2022/05/14 02:53:24;;;;;;;16.63;9.98;;;15.90;71.00;;;12.12;88.13;95914.09;5013160;28;20026;-53
2022/05/14 02:55:55;;;;;;;17.30;11.02;;;15.90;71.10;;;12.11;88.00;95914.38;5013145;28;20030;-51
2022/05/14 03:01:12;;;;;;;17.42;9.68;;;15.90;71.20;;;12.10;87.59;95918.13;5013254;28;20041;-52
2022/05/14 03:03:38;;;;;;;17.77;10.33;;;15.90;71.20;;;12.09;87.77;95919.16;5013058;28;20105;-50
2022/05/14 03:06:06;;;;;;;18.45;8.85;;;15.90;71.10;;;12.07;87.30;95913.31;5012920;28;20101;-51
2022/05/14 03:08:36;;;;;;;11.23;8.00;;;15.90;71.20;;;12.10;86.87;95918.13;5014167;28;20061;-50
2022/05/14 03:11:04;;;;;;;11.30;7.95;;;15.90;71.10;;;12.12;86.62;95918.63;5014209;28;20033;-55
2022/05/14 03:13:30;;;;;;;15.05;7.78;;;16.00;71.20;;;12.13;86.01;95910.38;5012876;28;20555;-53
2022/05/14 03:15:56;;;;;;;11.23;7.25;;;16.00;71.00;;;12.29;85.81;95918.41;5014230;28;20092;-51
2022/05/14 03:18:22;;;;;;;13.30;7.05;;;16.10;71.00;;;12.36;85.35;95918.94;4996811;28;20029;-52
2022/05/14 03:20:50;;;;;;;12.15;6.60;;;16.10;70.80;;;12.41;84.64;95925.06;5012540;28;20092;-50
2022/05/14 03:23:21;;;;;;;9.80;6.30;;;16.20;70.70;;;12.48;84.60;95919.47;5045916;28;20041;-51
2022/05/14 03:25:47;;;;;;;11.93;6.63;;;16.30;70.60;;;12.53;84.46;95926.66;5034053;28;20025;-53
2022/05/14 03:28:13;;;;;;;12.48;6.72;;;16.30;70.40;;;12.55;83.46;95921.84;5033680;28;20095;-53
2022/05/14 03:30:38;;;;;;;11.52;6.25;;;16.30;70.10;;;12.58;83.08;95916.78;5033374;28;20029;-55
2022/05/14 03:33:04;;;;;;;11.15;7.00;;;16.40;70.00;;;12.63;83.02;95919.44;5032643;28;20391;-54
2022/05/14 03:35:32;;;;;;;12.23;6.90;;;16.40;69.90;;;12.68;82.97;95926.66;5033429;28;20041;-56
2022/05/14 03:38:01;;;;;;;12.63;6.32;;;16.40;69.70;;;12.68;82.87;95919.44;5015997;28;20061;-50
2022/05/14 03:40:27;;;;;;;8.90;6.43;;;16.40;69.60;;;12.69;83.37;95930.91;5031966;28;20067;-53
2022/05/14 03:42:55;;;;;;;13.27;7.43;;;16.40;69.50;;;12.61;83.42;95928.81;5033199;28;20036;-50
2022/05/14 03:45:24;;;;;;;10.05;6.70;;;16.40;69.40;;;12.56;83.63;95932.25;5033248;28;20361;-53
2022/05/14 03:47:53;;;;;;;11.40;6.60;;;16.40;69.30;;;12.53;83.67;95940.81;5033252;28;20055;-50
2022/05/14 03:50:19;;;;;;;12.02;6.95;;;16.40;69.30;;;12.52;83.52;95930.41;5033227;28;20051;-55
2022/05/14 03:52:45;;;;;;;17.13;7.50;;;16.40;69.30;;;12.50;83.55;95930.66;5033113;28;20030;-49
2022/05/14 03:55:13;;;;;;;14.55;7.38;;;16.30;69.10;;;12.47;83.39;95936.53;5032942;28;20480;-55
2022/05/14 03:57:38;;;;;;;13.48;6.90;;;16.30;69.00;;;12.44;83.71;95937.91;5033025;28;20080;-53
2022/05/14 04:00:07;;;;;;;11.45;6.30;;;16.30;69.00;;;12.35;83.54;95936.03;5015210;28;20435;-54
2022/05/14 04:02:33;;;;;;;16.52;6.88;;;16.30;69.20;;;12.28;83.19;95925.59;5031702;28;20037;-55
2022/05/14 04:05:04;;;;;;;12.68;6.80;;;16.20;68.80;;;12.28;83.65;95936.28;5031624;28;20029;-51
2022/05/14 04:07:40;;;;;;;9.85;6.90;;;16.20;68.90;;;12.22;83.58;95932.00;5031645;28;20075;-50
2022/05/14 04:10:07;;;;;;;11.23;6.63;;;16.20;69.00;;;12.20;83.58;95939.50;5031562;28;20033;-50
2022/05/14 04:12:33;;;;;;;11.55;7.13;;;16.10;68.70;;;12.12;83.96;95935.47;5032711;28;20116;-50
2022/05/14 04:15:04;;;;;;;11.65;6.55;;;16.10;68.80;;;12.11;83.79;95943.75;5031703;28;20104;-51
2022/05/14 04:17:30;;;;;;;14.50;7.30;;;16.00;68.80;;;12.09;83.84;95937.84;5032813;28;20041;-52
2022/05/14 04:19:55;;;;;;;10.80;7.60;;;16.00;68.90;;;12.08;83.88;95944.28;5015042;28;20087;-54
2022/05/14 04:22:21;;;;;;;12.13;7.40;;;16.00;69.00;;;12.07;84.62;95946.16;5030976;28;20068;-51
2022/05/14 04:24:47;;;;;;;12.95;6.70;;;16.00;69.10;;;12.09;84.51;95937.84;5031334;28;20032;-50
2022/05/14 04:27:13;;;;;;;10.00;6.68;;;16.00;69.10;;;12.13;83.83;95936.28;5032473;28;20166;-54
2022/05/14 04:29:39;;;;;;;11.10;6.70;;;16.00;69.10;;;12.16;83.12;95936.56;5032485;28;20116;-51
2022/05/14 04:32:14;;;;;;;7.68;5.80;;;16.10;69.10;;;12.21;82.60;95933.88;5031219;28;20033;-50
2022/05/14 04:34:45;;;;;;;8.75;5.75;;;16.20;69.10;;;12.27;82.07;95938.16;5032409;28;20022;-54
2022/05/14 04:37:13;;;;;;;13.43;6.20;;;16.20;68.90;;;12.34;82.17;95947.78;5031190;28;20029;-51
2022/05/14 04:39:39;;;;;;;10.27;6.35;;;16.20;68.70;;;12.36;81.96;95943.75;5031146;28;20028;-55
2022/05/14 04:42:08;;;;;;;9.18;6.10;;;16.30;68.60;;;12.40;81.97;95944.81;5030996;28;20030;-51
2022/05/14 04:44:37;;;;;;;8.10;5.50;;;16.40;68.50;;;12.53;81.30;95953.38;5031006;28;20108;-56
2022/05/14 04:47:04;;;;;;;11.55;5.43;;;16.40;68.30;;;12.67;79.90;95938.41;5014748;28;20025;-51
2022/05/14 04:49:47;;;;;;;10.63;5.53;;;16.60;68.00;;;12.83;78.89;95942.66;5032256;28;20024;-51
2022/05/14 04:52:13;;;;;;;;;;;16.80;67.70;;;13.03;77.68;95949.06;5031456;28;20365;-51
2022/05/14 04:54:44;;;;;;;7.45;4.82;;;16.90;67.20;;;13.24;76.92;95947.13;5047654;28;19909;-50
2022/05/14 04:57:15;;;;;;;8.88;4.97;;;17.10;66.60;;;13.54;76.27;95951.63;5032485;28;20033;-53
2022/05/14 04:59:44;;;;;;;7.13;4.78;;;17.30;66.20;;;13.76;74.87;95945.91;5032129;28;20116;-51
2022/05/14 05:05:04;;;;;;;10.02;4.40;;;17.70;65.30;;;14.08;73.42;95956.97;5032335;28;20059;-52
2022/05/14 05:07:33;;;;;;;11.90;4.65;;;17.90;64.70;;;14.13;72.62;95950.75;5014847;28;20507;-50
2022/05/14 05:09:59;;;;;;;8.15;4.47;;;18.10;64.30;;;14.14;72.52;95952.38;5030870;28;20121;-53
2022/05/14 05:12:25;;;;;;;9.68;4.30;;;18.10;63.70;;;14.09;72.74;95955.88;5031297;28;20108;-52
2022/05/14 05:14:53;;;;;;;8.32;4.82;;;18.20;63.30;;;14.11;73.84;95958.28;5032230;28;20026;-57
2022/05/14 05:17:19;;;;;;;7.53;4.30;;;18.20;63.20;;;14.14;74.47;95955.06;5032259;28;20072;-52
2022/05/14 05:19:45;;;;;;;8.95;4.47;;;18.30;63.30;;;14.10;72.90;95957.50;5031935;28;20487;-55
2022/05/14 05:22:18;;;;;;;7.38;4.38;;;18.30;63.10;;;14.08;73.14;95958.84;5030356;28;20042;-52
2022/05/14 05:24:44;;;;;;;10.52;4.72;;;18.30;62.70;;;14.06;73.21;95956.41;5029179;28;20029;-52
2022/05/14 05:27:10;;;;;;;8.93;4.65;;;18.30;63.30;;;14.03;73.17;95959.66;5020005;28;20067;-55
2022/05/14 05:29:36;;;;;;;6.95;4.32;;;18.30;62.10;;;14.09;73.25;95963.09;5030277;28;20107;-55
2022/05/14 05:32:02;;;;;;;6.70;4.13;;;18.30;62.00;;;14.15;73.26;95962.00;5020130;28;20036;-51
2022/05/14 05:34:29;;;;;;;13.95;4.13;;;18.30;62.00;;;14.25;73.24;95956.56;5026064;28;20029;-51
2022/05/14 05:36:55;;;;;;;7.35;4.43;;;18.40;62.00;;;14.46;73.30;95953.75;5023420;28;20033;-54
2022/05/14 05:39:27;;;;;;;8.77;4.47;;;18.50;61.80;;;14.58;73.02;95968.44;5026895;28;20036;-47
2022/05/14 05:41:54;;;;;;;11.57;4.85;;;18.60;61.80;;;14.68;72.85;95966.75;5030814;28;20033;-50
2022/05/14 05:44:19;;;;;;;9.85;4.43;;;18.70;61.80;;;14.73;72.67;95972.88;4995181;28;20034;-52
2022/05/14 05:46:45;;;;;;;12.13;5.07;;;18.80;61.60;;;14.89;72.04;95972.75;5023877;28;20388;-53
2022/05/14 05:49:11;;;;;;;10.02;4.85;;;19.00;61.20;;;15.05;70.31;95968.81;5030252;28;20116;-52
2022/05/14 05:51:37;;;;;;;10.00;4.05;;;19.30;60.70;;;15.15;70.48;95966.03;5030506;28;20104;-50
2022/05/14 05:56:47;;;;;;;7.40;4.88;;;19.90;59.90;;;15.71;69.72;95965.44;5034331;28;20075;-54
2022/05/14 05:59:15;;;;;;;10.45;4.80;;;20.10;59.60;;;15.85;69.67;95970.09;5034237;28;20021;-55
2022/05/14 06:01:44;;;;;;;7.40;4.90;;;20.20;59.30;;;16.08;69.22;95973.84;5034052;28;20029;-55
2022/05/14 06:04:09;;;;;;;8.05;4.70;;;20.50;59.10;;;16.22;68.35;95972.03;5034061;28;20072;-55
2022/05/14 06:06:42;;;;;;;9.95;5.35;;;20.60;58.70;;;16.29;68.48;95964.38;5017869;28;20383;-56
2022/05/14 06:09:12;;;;;;;10.48;5.00;;;20.80;58.40;;;16.41;67.89;95972.81;5017758;28;20033;-51
2022/05/14 06:11:44;;;;;;;12.02;5.28;;;20.90;58.00;;;16.47;68.05;95962.78;5035093;28;20423;-55
2022/05/14 06:14:19;;;;;;;8.60;4.80;;;21.00;58.00;;;16.68;67.81;95971.34;5017909;28;20049;-52
2022/05/14 06:16:45;;;;;;;10.18;5.32;;;21.10;57.80;;;16.86;67.11;95967.84;5033687;28;20029;-54
2022/05/14 06:19:11;;;;;;;11.38;5.82;;;21.20;57.60;;;17.09;66.55;95971.47;5017692;28;20401;-54
2022/05/14 06:21:43;;;;;;;10.30;5.78;;;21.50;57.40;;;17.45;65.81;95978.09;5000318;28;20042;-50
2022/05/14 06:24:09;;;;;;;7.47;5.83;;;21.80;56.90;;;17.84;64.85;95983.00;5033838;28;20582;-54
2022/05/14 06:26:43;;;;;;;13.00;6.30;;;22.10;56.70;;;18.27;63.97;95983.44;5034583;28;20028;-53
2022/05/14 06:29:15;;;;;;;6.10;4.60;;;22.40;56.30;;;18.58;62.48;95982.72;5033560;28;20027;-54
2022/05/14 06:31:43;;;;;;;7.55;4.85;;;22.80;55.60;;;18.75;61.54;95982.09;5034865;28;20091;-56
2022/05/14 06:34:11;;;;;;;10.55;6.45;;;23.10;54.80;;;18.98;60.46;95990.19;5033934;28;20037;-55
2022/05/14 06:36:37;;;;;;;8.32;5.32;;;23.40;54.10;;;19.13;58.98;95985.19;5034711;28;20021;-51
2022/05/14 06:39:06;;;;;;;9.40;5.50;;;23.70;53.30;;;19.25;59.51;95973.03;5034576;28;20026;-53
2022/05/14 06:41:35;;;;;;;8.35;5.15;;;24.00;52.70;;;19.39;58.77;95982.63;5016937;28;20553;-52
2022/05/14 06:44:03;;;;;;;7.82;5.10;;;24.20;52.00;;;19.47;57.80;95974.88;5033140;28;20090;-56
2022/05/14 06:46:29;;;;;;;9.32;5.10;;;24.40;51.20;;;19.55;57.82;95977.59;5049985;28;20507;-57
2022/05/14 06:49:04;;;;;;;6.93;4.65;;;24.60;50.40;;;19.84;57.52;95977.13;5034354;28;20030;-56
2022/05/14 06:51:32;;;;;;;8.88;5.63;;;24.80;50.20;;;19.92;56.62;95983.63;5033249;28;20431;-54
2022/05/14 06:54:08;;;;;;;7.60;4.90;;;25.00;49.70;;;20.07;56.39;95987.81;5033173;28;20057;-55
2022/05/14 06:56:38;;;;;;;9.57;5.40;;;25.20;49.20;;;19.98;56.71;95987.00;5033183;28;20053;-56
2022/05/14 06:59:08;;;;;;;10.15;5.18;;;25.40;49.10;;;20.30;55.97;95988.47;5033215;28;20064;-55
2022/05/14 07:01:40;;;;;;;7.05;5.18;;;25.50;48.20;;;20.46;55.33;95977.97;5034125;28;20071;-53
2022/05/14 07:06:56;;;;;;;11.38;5.32;;;25.90;47.60;;;20.79;55.19;95981.84;5032997;28;20552;-58
2022/05/14 07:09:30;;;;;;;8.38;5.60;;;26.20;47.30;;;20.75;54.27;95980.09;5034009;28;20087;-53
2022/05/14 07:12:08;;;;;;;8.45;5.53;;;26.40;46.40;;;20.65;54.44;95977.69;5033979;28;20034;-56
2022/05/14 07:14:34;;;;;;;7.72;5.30;;;26.50;45.70;;;20.78;54.59;95979.47;5033958;28;20057;-56
2022/05/14 07:17:00;;;;;;;10.27;5.82;;;26.60;45.40;;;20.98;54.22;95978.00;5032698;28;20448;-53
2022/05/14 07:19:32;;;;;;;9.82;5.57;;;26.80;45.30;;;21.12;53.97;95981.31;5032418;28;20063;-56
2022/05/14 07:22:14;;;;;;;8.63;5.40;;;27.00;44.90;;;21.26;53.22;95986.53;5042357;28;20041;-57
2022/05/14 07:24:41;;;;;;;8.90;5.75;;;27.10;44.70;;;21.48;53.26;95985.53;5035477;28;20032;-57
2022/05/14 07:27:17;;;;;;;9.13;6.47;;;27.30;44.60;;;21.53;53.32;95982.66;5016053;28;20439;-56
2022/05/14 07:29:45;;;;;;;7.43;6.32;;;27.50;44.10;;;21.12;53.70;95981.31;5032096;28;20091;-56
2022/05/14 07:32:19;;;;;;;8.65;5.80;;;27.60;43.60;;;21.19;52.90;95981.59;5033551;28;20109;-55
2022/05/14 07:34:50;;;;;;;11.45;5.97;;;27.80;43.20;;;21.56;52.01;95981.19;5032397;28;20025;-54
2022/05/14 07:37:43;;;;;;;10.90;5.82;;;27.90;43.10;;;21.80;51.84;95980.63;5032168;28;20473;-55
2022/05/14 07:40:15;;;;;;;9.90;5.18;;;28.00;42.90;;;21.98;51.17;95970.47;5033315;28;20065;-53
2022/05/14 07:43:11;;;;;;;5.65;4.95;;;28.20;42.60;;;22.20;51.20;95970.19;5016078;28;20038;-54
2022/05/14 07:45:47;;;;;;;10.15;5.82;;;28.40;42.00;;;22.43;49.95;95969.88;5017462;28;20041;-57
2022/05/14 07:48:22;;;;;;;11.00;6.00;;;28.60;41.40;;;22.24;50.45;95968.41;5032360;28;20037;-58
2022/05/14 07:50:49;;;;;;;8.15;5.95;;;28.80;40.90;;;22.36;50.04;95973.13;5033504;28;20033;-56
2022/05/14 07:53:17;;;;;;;8.10;5.43;;;28.90;40.50;;;22.56;49.44;95977.78;5032092;28;20048;-56
2022/05/14 07:55:43;;;;;;;8.68;5.88;;;29.00;40.20;;;22.56;49.18;95982.38;5015756;28;20033;-55
2022/05/14 07:58:11;;;;;;;7.82;6.03;;;29.00;39.90;;;22.42;49.05;95976.44;5033043;28;20044;-56
2022/05/14 08:00:43;;;;;;;7.70;5.38;;;29.20;39.50;;;22.56;48.92;95971.53;5015353;28;20411;-55
2022/05/14 08:03:15;;;;;;;8.82;5.38;;;29.20;39.10;;;22.79;47.81;95972.78;5031562;28;20029;-57
2022/05/14 08:05:44;;;;;;;;;;;29.30;39.00;;;22.97;47.73;95962.59;5033479;28;20099;-56
2022/05/14 08:08:10;;;;;;;11.57;5.60;;;29.40;39.40;;;23.01;48.14;95968.13;5032852;28;20322;-57
2022/05/14 08:10:38;;;;;;;10.88;5.82;;;29.60;38.90;;;;;;5032801;28;20033;-57
2022/05/14 08:13:13;;;;;;;7.95;5.93;;;29.70;38.10;;;23.39;45.77;95969.81;5031558;28;20104;-56
2022/05/14 08:15:43;;;;;;;8.65;5.25;;;29.90;37.90;;;23.62;44.45;95973.66;5032702;28;20033;-55
2022/05/14 08:18:21;;;;;;;8.48;4.97;;;30.00;37.30;;;23.86;44.54;95975.66;5031140;28;20079;-55
2022/05/14 08:20:51;;;;;;;10.68;5.40;;;30.20;37.00;;;23.92;42.93;95971.56;5031856;28;20072;-59
2022/05/14 08:26:03;;;;;;;8.05;5.40;;;30.50;36.00;;;24.12;42.61;95966.31;5032695;28;20418;-56
2022/05/14 08:28:30;;;;;;;8.70;5.22;;;30.70;35.80;;;24.55;42.24;95978.53;5030452;28;20435;-58
2022/05/14 08:30:56;;;;;;;11.20;4.95;;;30.90;35.60;;;24.95;42.03;95985.88;5029263;28;20504;-57
2022/05/14 08:33:25;;;;;;;7.15;5.28;;;31.20;35.50;;;25.18;40.88;95983.41;5032443;28;20037;-56
2022/05/14 08:36:03;;;;;;;9.60;5.90;;;31.50;35.00;;;25.56;41.20;95986.34;5001724;28;20025;-54
2022/05/14 08:38:37;;;;;;;10.65;6.30;;;31.80;34.80;;;25.97;40.19;95989.72;5032276;28;20045;-57
2022/05/14 08:41:09;;;;;;;9.40;6.15;;;32.30;34.30;;;26.20;38.89;95986.34;5014689;28;20026;-56
2022/05/14 08:43:52;;;;;;;9.63;5.32;;;32.50;33.60;;;26.41;38.09;95975.88;5032381;28;20034;-58
2022/05/14 08:46:22;;;;;;;6.50;5.07;;;32.80;33.00;;;25.98;39.20;95982.31;5032484;28;20030;-59
2022/05/14 08:48:53;;;;;;;10.50;5.65;;;33.10;32.10;;;26.20;39.41;95978.13;5030958;28;20044;-56
2022/05/14 08:51:26;;;;;;;9.50;5.22;;;33.20;31.80;;;26.59;37.99;95978.25;5031143;28;20030;-56
2022/05/14 08:53:52;;;;;;;5.80;5.20;;;33.30;31.90;;;26.96;36.81;95971.19;5032478;28;20065;-55
2022/05/14 08:56:20;;;;;;;8.75;5.07;;;33.50;31.70;;;27.03;36.71;95969.75;5031297;28;20072;-57
2022/05/14 08:59:08;;;;;;;9.43;5.32;;;33.70;31.10;;;27.25;35.65;95960.03;5032418;28;20112;-56
2022/05/14 09:01:41;;;;;;;6.68;4.90;;;33.80;30.70;;;27.43;36.54;95966.63;5030876;28;20033;-58
2022/05/14 09:04:10;;;;;;;8.55;5.50;;;34.00;30.70;;;26.66;36.99;95962.00;5031332;28;20029;-59
2022/05/14 09:06:38;;;;;;;8.65;5.57;;;34.10;29.80;;;26.49;36.88;95969.47;5032398;28;20021;-59
2022/05/14 09:09:07;;;;;;;7.20;5.03;;;34.10;29.40;;;26.52;36.91;95968.75;5031201;28;20112;-56
2022/05/14 09:11:52;;;;;;;9.48;5.03;;;34.10;29.10;;;26.86;36.74;95974.53;5031063;28;20021;-55
2022/05/14 09:14:32;;;;;;;7.15;4.75;;;34.10;29.40;;;27.30;36.47;95970.69;5031429;28;20108;-55
2022/05/14 09:17:20;;;;;;;9.38;5.25;;;34.10;29.50;;;27.47;34.97;95956.53;5031364;28;20546;-57
2022/05/14 09:19:49;;;;;;;8.35;4.72;;;34.30;29.50;;;27.36;36.29;95972.75;5031196;28;20112;-57
2022/05/14 09:22:43;;;;;;;6.68;4.95;;;34.40;29.30;;;27.66;35.15;95966.63;5058806;28;20120;-58
2022/05/14 09:25:35;;;;;;;7.55;4.60;;;34.50;29.30;;;27.88;34.87;95959.56;5031487;28;20031;-58
2022/05/14 09:28:09;;;;;;;11.38;4.78;;;34.50;29.00;;;27.76;34.82;95957.78;5015851;28;20052;-57
2022/05/14 09:30:40;;;;;;;5.43;4.85;;;34.60;29.00;;;27.84;35.10;95967.72;5031429;28;20399;-58
2022/05/14 09:33:21;;;;;;;6.90;4.93;;;34.70;28.80;;;27.44;35.89;95965.47;5015313;28;20033;-58
2022/05/14 09:35:58;;;;;;;6.13;4.75;;;34.80;28.50;;;27.75;35.66;95960.91;5016180;28;20030;-59
2022/05/14 09:38:27;;;;;;;10.18;4.95;;;34.90;28.40;;;28.07;34.55;95955.94;5016267;28;20026;-58
2022/05/14 09:41:07;;;;;;;5.40;4.63;;;35.00;28.40;;;28.55;33.58;95951.56;5018527;28;20037;-57
2022/05/14 09:43:37;;;;;;;5.68;4.15;;;35.10;28.30;;;28.98;32.63;95954.81;5034792;28;20109;-58
2022/05/14 09:46:28;;;;;;;6.03;4.55;;;35.30;28.10;;;29.23;32.43;95952.34;5018136;28;20395;-57
2022/05/14 09:49:05;;;;;;;8.48;4.88;;;35.50;28.00;;;29.42;32.70;95951.38;5022784;28;20034;-57
2022/05/14 09:51:43;;;;;;;7.03;4.88;;;35.90;27.90;;;29.38;33.35;95952.50;5035663;28;20033;-56
2022/05/14 09:54:23;;;;;;;6.45;4.88;;;36.10;27.60;;;28.82;33.64;95948.75;5034577;28;20064;-57
2022/05/14 09:57:38;;;;;;;7.82;5.82;;;36.20;27.20;;;27.73;35.16;95947.56;5017829;28;20029;-57
2022/05/14 10:00:31;;;;;;;10.18;5.30;;;36.10;27.00;;;27.75;35.78;95956.22;5034288;28;20084;-55
2022/05/14 10:03:18;;;;;;;9.80;5.35;;;35.90;26.90;;;28.03;34.08;95946.91;5035276;28;20484;-57
2022/05/14 10:06:08;;;;;;;8.65;5.07;;;35.80;26.90;;;28.67;34.47;95944.25;5023475;28;20442;-57
2022/05/14 10:09:06;;;;;;;6.45;4.90;;;35.80;27.00;;;28.68;33.13;95946.63;5034286;28;20512;-56
2022/05/14 10:11:58;;;;;;;6.65;5.20;;;35.80;27.00;;;28.70;32.96;95941.56;5019586;28;20033;-57
2022/05/14 10:14:36;;;;;;;11.40;5.53;;;35.90;27.00;;;28.43;33.10;95943.59;5035023;28;20037;-57
2022/05/14 10:17:13;;;;;;;8.25;5.22;;;35.90;27.20;;;28.55;32.88;95945.28;5034079;28;20472;-52
2022/05/14 10:19:55;;;;;;;5.82;4.63;;;35.90;26.60;;;28.97;32.69;95950.50;5035097;28;20137;-56
2022/05/14 10:29:09;;;;;;;8.38;5.30;;;36.30;26.80;;;29.61;32.62;95935.88;5033908;28;20095;-55
2022/05/14 10:32:00;;;;;;;7.60;5.00;;;36.50;26.60;;;29.49;32.20;95947.94;5033508;28;20522;-56
2022/05/14 10:34:59;;;;;;;9.30;5.57;;;36.50;26.30;;;29.50;31.60;95942.03;5033671;28;20392;-56
2022/05/14 10:37:57;;;;;;;8.73;5.10;;;36.60;26.10;;;29.42;31.53;95940.38;5034609;28;20037;-57
2022/05/14 10:40:36;;;;;;;6.97;5.47;;;36.70;26.00;;;29.59;30.88;95938.19;5034671;28;20111;-57
2022/05/14 10:43:34;;;;;;;6.90;5.40;;;36.80;25.90;;;29.86;31.07;95931.38;5033062;28;20083;-57
2022/05/14 10:46:18;;;;;;;6.63;5.50;;;37.00;25.90;;;30.40;30.23;95929.78;5033451;28;20026;-55
2022/05/14 10:49:22;;;;;;;7.38;5.38;;;37.30;25.80;;;30.37;29.64;95935.28;5033264;28;20027;-58
2022/05/14 10:51:51;;;;;;;7.10;5.80;;;37.60;25.50;;;30.27;30.88;95931.28;5034087;28;20029;-50
2022/05/14 10:54:38;;;;;;;7.93;5.63;;;37.80;25.20;;;30.18;30.83;95923.38;5033101;28;20045;-55
2022/05/14 10:57:19;;;;;;;8.15;5.25;;;37.90;24.90;;;30.52;30.28;95925.91;5016727;28;20545;-55
2022/05/14 10:59:51;;;;;;;7.40;5.78;;;37.90;25.00;;;30.42;29.84;95921.16;5034307;28;20495;-58
2022/05/14 11:02:38;;;;;;;;;;;38.00;24.70;;;30.29;30.29;95917.16;5017242;28;20060;-52